sensor_id;sensor_type;location;lat;lon;timestamp;temperature;humidity
28959;DHT22;16066;0.000;0.000;2022-12-31T00:01:09;19.40;46.40
28959;DHT22;16066;0.000;0.000;2022-12-31T00:03:35;19.40;46.50
28959;DHT22;16066;0.000;0.000;2022-12-31T00:06:14;19.30;46.30
28959;DHT22;16066;0.000;0.000;2022-12-31T00:08:40;19.30;46.40
28959;DHT22;16066;0.000;0.000;2022-12-31T00:11:06;19.30;46.50
28959;DHT22;16066;0.000;0.000;2022-12-31T00:13:31;19.20;46.50
28959;DHT22;16066;0.000;0.000;2022-12-31T00:16:09;19.20;46.60
28959;DHT22;16066;0.000;0.000;2022-12-31T00:18:35;19.20;46.60
28959;DHT22;16066;0.000;0.000;2022-12-31T00:21:07;19.20;46.70
28959;DHT22;16066;0.000;0.000;2022-12-31T00:23:33;19.10;46.60
28959;DHT22;16066;0.000;0.000;2022-12-31T00:26:04;19.10;46.70
28959;DHT22;16066;0.000;0.000;2022-12-31T00:28:30;19.10;46.80
28959;DHT22;16066;0.000;0.000;2022-12-31T00:30:56;19.10;46.80
28959;DHT22;16066;0.000;0.000;2022-12-31T00:33:21;19.00;46.80
28959;DHT22;16066;0.000;0.000;2022-12-31T00:35:47;19.00;46.90
28959;DHT22;16066;0.000;0.000;2022-12-31T00:38:12;19.00;46.90
28959;DHT22;16066;0.000;0.000;2022-12-31T00:40:38;19.00;46.90
28959;DHT22;16066;0.000;0.000;2022-12-31T00:43:03;19.00;47.00
28959;DHT22;16066;0.000;0.000;2022-12-31T00:45:29;18.90;46.90
28959;DHT22;16066;0.000;0.000;2022-12-31T00:47:54;18.90;47.00
28959;DHT22;16066;0.000;0.000;2022-12-31T00:50:20;18.90;47.00
28959;DHT22;16066;0.000;0.000;2022-12-31T00:52:45;18.90;47.10
28959;DHT22;16066;0.000;0.000;2022-12-31T00:55:11;18.90;47.00
28959;DHT22;16066;0.000;0.000;2022-12-31T00:57:36;18.80;47.10
28959;DHT22;16066;0.000;0.000;2022-12-31T01:00:02;18.80;47.10
28959;DHT22;16066;0.000;0.000;2022-12-31T01:02:28;18.80;47.20
28959;DHT22;16066;0.000;0.000;2022-12-31T01:04:53;18.80;47.30
28959;DHT22;16066;0.000;0.000;2022-12-31T01:07:19;18.80;47.40
28959;DHT22;16066;0.000;0.000;2022-12-31T01:09:44;18.80;47.30
28959;DHT22;16066;0.000;0.000;2022-12-31T01:12:10;18.80;47.40
28959;DHT22;16066;0.000;0.000;2022-12-31T01:14:35;18.70;47.40
28959;DHT22;16066;0.000;0.000;2022-12-31T01:17:01;18.70;47.40
28959;DHT22;16066;0.000;0.000;2022-12-31T01:19:28;18.70;47.50
28959;DHT22;16066;0.000;0.000;2022-12-31T01:21:54;18.70;47.50
28959;DHT22;16066;0.000;0.000;2022-12-31T01:24:20;18.70;47.50
28959;DHT22;16066;0.000;0.000;2022-12-31T01:26:46;18.70;47.60
28959;DHT22;16066;0.000;0.000;2022-12-31T01:29:12;18.60;47.60
28959;DHT22;16066;0.000;0.000;2022-12-31T01:31:38;18.60;47.60
28959;DHT22;16066;0.000;0.000;2022-12-31T01:34:05;18.60;47.60
28959;DHT22;16066;0.000;0.000;2022-12-31T01:36:33;18.60;47.70
28959;DHT22;16066;0.000;0.000;2022-12-31T01:39:00;18.60;47.70
28959;DHT22;16066;0.000;0.000;2022-12-31T01:41:29;18.60;47.70
28959;DHT22;16066;0.000;0.000;2022-12-31T01:44:00;18.60;47.70
28959;DHT22;16066;0.000;0.000;2022-12-31T01:47:01;18.60;47.70
28959;DHT22;16066;0.000;0.000;2022-12-31T01:49:36;18.60;47.70
28959;DHT22;16066;0.000;0.000;2022-12-31T01:52:13;18.50;47.80
28959;DHT22;16066;0.000;0.000;2022-12-31T01:54:46;18.50;47.80
28959;DHT22;16066;0.000;0.000;2022-12-31T01:57:12;18.50;47.90
28959;DHT22;16066;0.000;0.000;2022-12-31T01:59:39;18.50;47.80
28959;DHT22;16066;0.000;0.000;2022-12-31T02:02:04;18.50;47.80
28959;DHT22;16066;0.000;0.000;2022-12-31T02:04:31;18.50;47.90
28959;DHT22;16066;0.000;0.000;2022-12-31T02:07:05;18.50;47.90
28959;DHT22;16066;0.000;0.000;2022-12-31T02:09:32;18.50;47.90
28959;DHT22;16066;0.000;0.000;2022-12-31T02:11:58;18.50;48.00
28959;DHT22;16066;0.000;0.000;2022-12-31T02:14:39;18.50;48.10
28959;DHT22;16066;0.000;0.000;2022-12-31T02:19:48;18.40;48.20
28959;DHT22;16066;0.000;0.000;2022-12-31T02:25:43;18.40;48.30
28959;DHT22;16066;0.000;0.000;2022-12-31T02:31:23;18.40;48.40
28959;DHT22;16066;0.000;0.000;2022-12-31T02:33:55;18.40;48.30
28959;DHT22;16066;0.000;0.000;2022-12-31T02:36:26;18.40;48.20
28959;DHT22;16066;0.000;0.000;2022-12-31T02:38:53;18.40;48.50
28959;DHT22;16066;0.000;0.000;2022-12-31T02:41:20;18.40;48.30
28959;DHT22;16066;0.000;0.000;2022-12-31T02:50:09;18.40;48.50
28959;DHT22;16066;0.000;0.000;2022-12-31T03:01:45;18.40;48.70
28959;DHT22;16066;0.000;0.000;2022-12-31T03:04:31;18.40;48.60
28959;DHT22;16066;0.000;0.000;2022-12-31T03:07:05;18.30;48.60
28959;DHT22;16066;0.000;0.000;2022-12-31T03:09:32;18.30;48.60
28959;DHT22;16066;0.000;0.000;2022-12-31T03:11:58;18.30;48.50
28959;DHT22;16066;0.000;0.000;2022-12-31T03:14:42;18.40;48.60
28959;DHT22;16066;0.000;0.000;2022-12-31T03:17:08;18.30;48.60
28959;DHT22;16066;0.000;0.000;2022-12-31T03:19:33;18.30;48.70
28959;DHT22;16066;0.000;0.000;2022-12-31T03:22:17;18.30;48.50
28959;DHT22;16066;0.000;0.000;2022-12-31T03:25:03;18.30;48.80
28959;DHT22;16066;0.000;0.000;2022-12-31T03:27:48;18.30;48.70
28959;DHT22;16066;0.000;0.000;2022-12-31T03:30:15;18.30;49.30
28959;DHT22;16066;0.000;0.000;2022-12-31T03:32:42;18.30;48.80
28959;DHT22;16066;0.000;0.000;2022-12-31T03:35:10;18.30;48.70
28959;DHT22;16066;0.000;0.000;2022-12-31T03:37:37;18.30;48.90
28959;DHT22;16066;0.000;0.000;2022-12-31T03:40:04;18.30;48.70
28959;DHT22;16066;0.000;0.000;2022-12-31T03:42:30;18.30;48.70
28959;DHT22;16066;0.000;0.000;2022-12-31T03:44:55;18.30;48.70
28959;DHT22;16066;0.000;0.000;2022-12-31T03:47:21;18.30;48.90
28959;DHT22;16066;0.000;0.000;2022-12-31T03:49:46;18.30;48.80
28959;DHT22;16066;0.000;0.000;2022-12-31T03:52:12;18.30;48.90
28959;DHT22;16066;0.000;0.000;2022-12-31T03:54:37;18.30;48.90
28959;DHT22;16066;0.000;0.000;2022-12-31T03:57:03;18.30;49.10
28959;DHT22;16066;0.000;0.000;2022-12-31T03:59:28;18.30;49.10
28959;DHT22;16066;0.000;0.000;2022-12-31T04:01:54;18.30;48.90
28959;DHT22;16066;0.000;0.000;2022-12-31T04:04:19;18.30;49.10
28959;DHT22;16066;0.000;0.000;2022-12-31T04:06:45;18.30;49.10
28959;DHT22;16066;0.000;0.000;2022-12-31T04:09:10;18.20;49.10
28959;DHT22;16066;0.000;0.000;2022-12-31T04:11:36;18.20;49.10
28959;DHT22;16066;0.000;0.000;2022-12-31T04:14:01;18.20;49.00
28959;DHT22;16066;0.000;0.000;2022-12-31T04:16:27;18.30;49.10
28959;DHT22;16066;0.000;0.000;2022-12-31T04:18:52;18.20;49.10
28959;DHT22;16066;0.000;0.000;2022-12-31T04:21:18;18.20;48.90
28959;DHT22;16066;0.000;0.000;2022-12-31T04:23:43;18.30;49.20
28959;DHT22;16066;0.000;0.000;2022-12-31T04:26:09;18.20;49.10
28959;DHT22;16066;0.000;0.000;2022-12-31T04:28:34;18.20;49.20
28959;DHT22;16066;0.000;0.000;2022-12-31T04:31:00;18.20;49.30
28959;DHT22;16066;0.000;0.000;2022-12-31T04:33:25;18.20;49.00
28959;DHT22;16066;0.000;0.000;2022-12-31T04:35:51;18.20;49.00
28959;DHT22;16066;0.000;0.000;2022-12-31T04:38:16;18.20;49.10
28959;DHT22;16066;0.000;0.000;2022-12-31T04:40:44;18.20;49.20
28959;DHT22;16066;0.000;0.000;2022-12-31T04:43:28;18.20;49.10
28959;DHT22;16066;0.000;0.000;2022-12-31T04:45:54;18.20;49.30
28959;DHT22;16066;0.000;0.000;2022-12-31T04:48:19;18.20;49.10
28959;DHT22;16066;0.000;0.000;2022-12-31T04:50:45;18.20;49.10
28959;DHT22;16066;0.000;0.000;2022-12-31T04:53:11;18.20;49.20
28959;DHT22;16066;0.000;0.000;2022-12-31T04:55:36;18.20;49.30
28959;DHT22;16066;0.000;0.000;2022-12-31T04:58:02;18.20;49.30
28959;DHT22;16066;0.000;0.000;2022-12-31T05:00:29;18.20;49.50
28959;DHT22;16066;0.000;0.000;2022-12-31T05:02:54;18.20;49.40
28959;DHT22;16066;0.000;0.000;2022-12-31T05:05:20;18.20;49.40
28959;DHT22;16066;0.000;0.000;2022-12-31T05:07:45;18.20;49.40
28959;DHT22;16066;0.000;0.000;2022-12-31T05:10:11;18.20;49.40
28959;DHT22;16066;0.000;0.000;2022-12-31T05:12:36;18.20;49.60
28959;DHT22;16066;0.000;0.000;2022-12-31T05:15:02;18.20;49.50
28959;DHT22;16066;0.000;0.000;2022-12-31T05:17:27;18.20;49.60
28959;DHT22;16066;0.000;0.000;2022-12-31T05:19:53;18.20;49.50
28959;DHT22;16066;0.000;0.000;2022-12-31T05:22:18;18.20;49.40
28959;DHT22;16066;0.000;0.000;2022-12-31T05:24:53;18.20;49.50
28959;DHT22;16066;0.000;0.000;2022-12-31T05:27:19;18.20;49.40
28959;DHT22;16066;0.000;0.000;2022-12-31T05:29:44;18.20;49.60
28959;DHT22;16066;0.000;0.000;2022-12-31T05:32:10;18.20;49.40
28959;DHT22;16066;0.000;0.000;2022-12-31T05:34:35;18.20;49.50
28959;DHT22;16066;0.000;0.000;2022-12-31T05:37:01;18.20;49.50
28959;DHT22;16066;0.000;0.000;2022-12-31T05:39:26;18.20;49.40
28959;DHT22;16066;0.000;0.000;2022-12-31T05:41:52;18.20;49.50
28959;DHT22;16066;0.000;0.000;2022-12-31T05:44:17;18.20;49.40
28959;DHT22;16066;0.000;0.000;2022-12-31T05:46:43;18.20;49.40
28959;DHT22;16066;0.000;0.000;2022-12-31T05:49:09;18.20;49.40
28959;DHT22;16066;0.000;0.000;2022-12-31T05:51:34;18.20;49.50
28959;DHT22;16066;0.000;0.000;2022-12-31T05:54:00;18.20;49.40
28959;DHT22;16066;0.000;0.000;2022-12-31T05:56:25;18.20;49.60
28959;DHT22;16066;0.000;0.000;2022-12-31T05:58:51;18.20;49.50
28959;DHT22;16066;0.000;0.000;2022-12-31T06:01:16;18.20;49.60
28959;DHT22;16066;0.000;0.000;2022-12-31T06:03:41;18.20;49.50
28959;DHT22;16066;0.000;0.000;2022-12-31T06:06:07;18.20;49.60
28959;DHT22;16066;0.000;0.000;2022-12-31T06:08:32;18.10;49.60
28959;DHT22;16066;0.000;0.000;2022-12-31T06:10:58;18.20;49.50
28959;DHT22;16066;0.000;0.000;2022-12-31T06:13:23;18.10;49.30
28959;DHT22;16066;0.000;0.000;2022-12-31T06:15:49;18.20;49.80
28959;DHT22;16066;0.000;0.000;2022-12-31T06:18:14;18.20;49.90
28959;DHT22;16066;0.000;0.000;2022-12-31T06:20:40;18.10;49.70
28959;DHT22;16066;0.000;0.000;2022-12-31T06:23:05;18.20;50.00
28959;DHT22;16066;0.000;0.000;2022-12-31T06:25:33;18.20;49.90
28959;DHT22;16066;0.000;0.000;2022-12-31T06:27:59;18.20;50.00
28959;DHT22;16066;0.000;0.000;2022-12-31T06:30:24;18.20;50.00
28959;DHT22;16066;0.000;0.000;2022-12-31T06:32:50;18.20;49.80
28959;DHT22;16066;0.000;0.000;2022-12-31T06:35:15;18.20;49.90
28959;DHT22;16066;0.000;0.000;2022-12-31T06:37:41;18.20;49.90
28959;DHT22;16066;0.000;0.000;2022-12-31T06:40:07;18.20;50.00
28959;DHT22;16066;0.000;0.000;2022-12-31T06:42:33;18.20;50.00
28959;DHT22;16066;0.000;0.000;2022-12-31T06:44:58;18.20;49.70
28959;DHT22;16066;0.000;0.000;2022-12-31T06:47:24;18.20;49.50
28959;DHT22;16066;0.000;0.000;2022-12-31T06:49:50;18.20;49.30
28959;DHT22;16066;0.000;0.000;2022-12-31T06:52:16;18.20;49.30
28959;DHT22;16066;0.000;0.000;2022-12-31T06:54:42;18.30;49.30
28959;DHT22;16066;0.000;0.000;2022-12-31T06:57:08;18.30;49.30
28959;DHT22;16066;0.000;0.000;2022-12-31T06:59:34;18.30;49.20
28959;DHT22;16066;0.000;0.000;2022-12-31T07:02:28;18.30;49.10
28959;DHT22;16066;0.000;0.000;2022-12-31T07:05:04;18.40;49.10
28959;DHT22;16066;0.000;0.000;2022-12-31T07:13:39;18.50;49.10
28959;DHT22;16066;0.000;0.000;2022-12-31T07:16:22;18.60;49.00
28959;DHT22;16066;0.000;0.000;2022-12-31T07:19:19;18.60;48.90
28959;DHT22;16066;0.000;0.000;2022-12-31T07:21:48;18.70;48.90
28959;DHT22;16066;0.000;0.000;2022-12-31T07:24:15;18.70;48.80
28959;DHT22;16066;0.000;0.000;2022-12-31T07:26:56;18.70;48.50
28959;DHT22;16066;0.000;0.000;2022-12-31T07:29:29;18.80;48.30
28959;DHT22;16066;0.000;0.000;2022-12-31T07:35:20;18.80;48.20
28959;DHT22;16066;0.000;0.000;2022-12-31T07:38:07;18.80;48.30
28959;DHT22;16066;0.000;0.000;2022-12-31T07:40:45;18.90;48.50
28959;DHT22;16066;0.000;0.000;2022-12-31T07:48:31;19.10;48.70
28959;DHT22;16066;0.000;0.000;2022-12-31T07:50:57;19.10;48.70
28959;DHT22;16066;0.000;0.000;2022-12-31T07:53:24;19.10;48.50
28959;DHT22;16066;0.000;0.000;2022-12-31T07:55:57;19.20;48.60
28959;DHT22;16066;0.000;0.000;2022-12-31T08:01:08;19.20;48.50
28959;DHT22;16066;0.000;0.000;2022-12-31T08:03:56;19.40;48.60
28959;DHT22;16066;0.000;0.000;2022-12-31T08:06:48;19.40;48.40
28959;DHT22;16066;0.000;0.000;2022-12-31T08:09:44;19.50;48.40
28959;DHT22;16066;0.000;0.000;2022-12-31T08:12:11;19.50;48.30
28959;DHT22;16066;0.000;0.000;2022-12-31T08:14:42;19.60;48.10
28959;DHT22;16066;0.000;0.000;2022-12-31T08:17:13;19.60;48.10
28959;DHT22;16066;0.000;0.000;2022-12-31T08:19:39;19.70;48.20
28959;DHT22;16066;0.000;0.000;2022-12-31T08:25:27;19.70;48.10
28959;DHT22;16066;0.000;0.000;2022-12-31T08:31:05;19.70;48.20
28959;DHT22;16066;0.000;0.000;2022-12-31T08:33:54;19.70;48.30
28959;DHT22;16066;0.000;0.000;2022-12-31T08:42:22;19.70;48.60
28959;DHT22;16066;0.000;0.000;2022-12-31T08:47:52;19.80;48.30
28959;DHT22;16066;0.000;0.000;2022-12-31T08:50:23;19.80;48.40
28959;DHT22;16066;0.000;0.000;2022-12-31T08:52:48;19.80;48.20
28959;DHT22;16066;0.000;0.000;2022-12-31T08:55:15;19.80;48.20
28959;DHT22;16066;0.000;0.000;2022-12-31T08:58:03;19.80;48.30
28959;DHT22;16066;0.000;0.000;2022-12-31T09:00:31;19.80;48.20
28959;DHT22;16066;0.000;0.000;2022-12-31T09:03:07;19.80;48.30
28959;DHT22;16066;0.000;0.000;2022-12-31T09:16:42;19.70;47.80
28959;DHT22;16066;0.000;0.000;2022-12-31T09:19:10;19.80;47.90
28959;DHT22;16066;0.000;0.000;2022-12-31T09:21:36;19.70;47.90
28959;DHT22;16066;0.000;0.000;2022-12-31T09:24:03;19.80;47.90
28959;DHT22;16066;0.000;0.000;2022-12-31T09:27:03;19.80;47.90
28959;DHT22;16066;0.000;0.000;2022-12-31T09:35:29;19.80;48.00
28959;DHT22;16066;0.000;0.000;2022-12-31T09:52:29;19.90;48.00
28959;DHT22;16066;0.000;0.000;2022-12-31T09:55:37;19.90;48.00
28959;DHT22;16066;0.000;0.000;2022-12-31T09:58:06;19.90;48.00
28959;DHT22;16066;0.000;0.000;2022-12-31T10:00:47;19.90;48.50
28959;DHT22;16066;0.000;0.000;2022-12-31T10:03:50;20.00;48.10
28959;DHT22;16066;0.000;0.000;2022-12-31T10:07:03;19.90;48.00
28959;DHT22;16066;0.000;0.000;2022-12-31T10:09:36;20.00;48.20
28959;DHT22;16066;0.000;0.000;2022-12-31T10:17:53;19.90;48.00
28959;DHT22;16066;0.000;0.000;2022-12-31T10:23:20;19.90;48.00
28959;DHT22;16066;0.000;0.000;2022-12-31T10:28:58;20.00;47.90
28959;DHT22;16066;0.000;0.000;2022-12-31T10:37:01;20.10;47.90
28959;DHT22;16066;0.000;0.000;2022-12-31T10:46:02;20.10;47.80
28959;DHT22;16066;0.000;0.000;2022-12-31T10:53:45;20.10;47.70
28959;DHT22;16066;0.000;0.000;2022-12-31T11:11:07;20.00;48.00
28959;DHT22;16066;0.000;0.000;2022-12-31T11:13:49;20.00;48.00
28959;DHT22;16066;0.000;0.000;2022-12-31T11:22:20;20.00;48.00
28959;DHT22;16066;0.000;0.000;2022-12-31T11:48:25;20.00;47.90
28959;DHT22;16066;0.000;0.000;2022-12-31T11:51:59;20.00;47.90
28959;DHT22;16066;0.000;0.000;2022-12-31T11:54:41;20.00;47.90
28959;DHT22;16066;0.000;0.000;2022-12-31T11:57:36;20.00;48.10
28959;DHT22;16066;0.000;0.000;2022-12-31T12:00:16;20.00;48.00
28959;DHT22;16066;0.000;0.000;2022-12-31T12:05:15;20.00;48.00
28959;DHT22;16066;0.000;0.000;2022-12-31T12:07:41;20.00;47.80
28959;DHT22;16066;0.000;0.000;2022-12-31T12:10:26;19.90;47.90
28959;DHT22;16066;0.000;0.000;2022-12-31T12:12:54;19.90;47.90
28959;DHT22;16066;0.000;0.000;2022-12-31T12:15:23;20.00;47.90
28959;DHT22;16066;0.000;0.000;2022-12-31T12:17:53;20.00;48.00
28959;DHT22;16066;0.000;0.000;2022-12-31T12:20:35;20.00;47.90
28959;DHT22;16066;0.000;0.000;2022-12-31T12:23:12;20.00;48.00
28959;DHT22;16066;0.000;0.000;2022-12-31T12:25:40;20.00;47.90
28959;DHT22;16066;0.000;0.000;2022-12-31T12:28:26;20.00;48.10
28959;DHT22;16066;0.000;0.000;2022-12-31T12:30:58;20.00;48.00
28959;DHT22;16066;0.000;0.000;2022-12-31T12:33:25;20.00;48.10
28959;DHT22;16066;0.000;0.000;2022-12-31T12:35:50;19.90;47.90
28959;DHT22;16066;0.000;0.000;2022-12-31T12:38:19;19.90;48.30
28959;DHT22;16066;0.000;0.000;2022-12-31T12:41:00;19.90;48.00
28959;DHT22;16066;0.000;0.000;2022-12-31T12:43:28;19.90;47.90
28959;DHT22;16066;0.000;0.000;2022-12-31T12:45:59;19.90;48.00
28959;DHT22;16066;0.000;0.000;2022-12-31T12:48:40;19.90;47.90
28959;DHT22;16066;0.000;0.000;2022-12-31T12:57:04;19.90;48.10
28959;DHT22;16066;0.000;0.000;2022-12-31T12:59:53;19.90;47.90
28959;DHT22;16066;0.000;0.000;2022-12-31T13:02:59;19.90;47.90
28959;DHT22;16066;0.000;0.000;2022-12-31T13:05:50;19.90;47.70
28959;DHT22;16066;0.000;0.000;2022-12-31T13:08:41;19.90;47.80
28959;DHT22;16066;0.000;0.000;2022-12-31T13:16:53;19.90;48.00
28959;DHT22;16066;0.000;0.000;2022-12-31T13:19:29;19.90;47.90
28959;DHT22;16066;0.000;0.000;2022-12-31T13:24:57;19.90;48.00
28959;DHT22;16066;0.000;0.000;2022-12-31T13:27:44;19.90;48.20
28959;DHT22;16066;0.000;0.000;2022-12-31T13:32:46;19.90;48.20
28959;DHT22;16066;0.000;0.000;2022-12-31T13:35:42;19.90;48.80
28959;DHT22;16066;0.000;0.000;2022-12-31T13:38:19;19.90;49.00
28959;DHT22;16066;0.000;0.000;2022-12-31T13:43:46;19.90;48.90
28959;DHT22;16066;0.000;0.000;2022-12-31T13:49:01;19.90;48.70
28959;DHT22;16066;0.000;0.000;2022-12-31T13:51:43;19.90;48.60
28959;DHT22;16066;0.000;0.000;2022-12-31T13:54:25;19.90;48.60
28959;DHT22;16066;0.000;0.000;2022-12-31T13:56:54;19.90;48.60
28959;DHT22;16066;0.000;0.000;2022-12-31T13:59:33;19.90;48.60
28959;DHT22;16066;0.000;0.000;2022-12-31T14:05:42;19.90;48.50
28959;DHT22;16066;0.000;0.000;2022-12-31T14:07:52;19.90;48.50
28959;DHT22;16066;0.000;0.000;2022-12-31T14:10:27;19.90;48.50
28959;DHT22;16066;0.000;0.000;2022-12-31T14:13:00;19.90;48.50
28959;DHT22;16066;0.000;0.000;2022-12-31T14:15:41;19.80;48.40
28959;DHT22;16066;0.000;0.000;2022-12-31T14:18:38;19.80;48.30
28959;DHT22;16066;0.000;0.000;2022-12-31T14:21:16;19.80;48.30
28959;DHT22;16066;0.000;0.000;2022-12-31T14:26:26;19.90;48.70
28959;DHT22;16066;0.000;0.000;2022-12-31T14:29:05;19.90;48.90
28959;DHT22;16066;0.000;0.000;2022-12-31T14:34:24;20.00;48.80
28959;DHT22;16066;0.000;0.000;2022-12-31T14:37:04;20.00;48.80
28959;DHT22;16066;0.000;0.000;2022-12-31T14:42:29;20.00;48.70
28959;DHT22;16066;0.000;0.000;2022-12-31T14:45:26;20.10;48.50
28959;DHT22;16066;0.000;0.000;2022-12-31T14:48:03;20.00;48.60
28959;DHT22;16066;0.000;0.000;2022-12-31T14:50:32;20.00;48.60
28959;DHT22;16066;0.000;0.000;2022-12-31T14:55:30;20.00;48.30
28959;DHT22;16066;0.000;0.000;2022-12-31T14:57:57;20.00;48.30
28959;DHT22;16066;0.000;0.000;2022-12-31T15:00:37;20.00;48.40
28959;DHT22;16066;0.000;0.000;2022-12-31T15:03:22;20.00;48.50
28959;DHT22;16066;0.000;0.000;2022-12-31T15:05:53;20.00;48.50
28959;DHT22;16066;0.000;0.000;2022-12-31T15:17:04;20.10;48.60
28959;DHT22;16066;0.000;0.000;2022-12-31T15:22:33;20.10;48.90
28959;DHT22;16066;0.000;0.000;2022-12-31T15:25:01;20.10;48.80
28959;DHT22;16066;0.000;0.000;2022-12-31T15:27:29;20.10;48.80
28959;DHT22;16066;0.000;0.000;2022-12-31T15:29:55;20.10;48.80
28959;DHT22;16066;0.000;0.000;2022-12-31T15:32:35;20.10;48.90
28959;DHT22;16066;0.000;0.000;2022-12-31T15:35:26;20.10;48.90
28959;DHT22;16066;0.000;0.000;2022-12-31T15:40:25;20.10;48.60
28959;DHT22;16066;0.000;0.000;2022-12-31T15:43:02;20.10;48.90
28959;DHT22;16066;0.000;0.000;2022-12-31T15:45:35;20.10;49.00
28959;DHT22;16066;0.000;0.000;2022-12-31T15:48:25;20.10;48.90
28959;DHT22;16066;0.000;0.000;2022-12-31T15:50:56;20.10;49.00
28959;DHT22;16066;0.000;0.000;2022-12-31T15:55:50;20.10;48.90
28959;DHT22;16066;0.000;0.000;2022-12-31T15:58:18;20.10;48.80
28959;DHT22;16066;0.000;0.000;2022-12-31T16:03:22;20.10;48.80
28959;DHT22;16066;0.000;0.000;2022-12-31T16:05:48;20.10;48.60
28959;DHT22;16066;0.000;0.000;2022-12-31T16:08:28;20.10;48.80
28959;DHT22;16066;0.000;0.000;2022-12-31T16:10:56;20.10;48.60
28959;DHT22;16066;0.000;0.000;2022-12-31T16:13:24;20.10;48.90
28959;DHT22;16066;0.000;0.000;2022-12-31T16:15:59;20.10;49.00
28959;DHT22;16066;0.000;0.000;2022-12-31T16:18:38;20.10;48.90
28959;DHT22;16066;0.000;0.000;2022-12-31T16:21:04;20.10;48.90
28959;DHT22;16066;0.000;0.000;2022-12-31T16:23:30;20.10;48.90
28959;DHT22;16066;0.000;0.000;2022-12-31T16:25:59;20.10;48.90
28959;DHT22;16066;0.000;0.000;2022-12-31T16:28:30;20.10;48.90
28959;DHT22;16066;0.000;0.000;2022-12-31T16:31:02;20.10;48.70
28959;DHT22;16066;0.000;0.000;2022-12-31T16:33:29;20.10;48.90
28959;DHT22;16066;0.000;0.000;2022-12-31T16:35:58;20.10;48.90
28959;DHT22;16066;0.000;0.000;2022-12-31T16:38:36;20.10;48.80
28959;DHT22;16066;0.000;0.000;2022-12-31T16:43:36;20.10;48.70
28959;DHT22;16066;0.000;0.000;2022-12-31T16:46:21;20.20;48.90
28959;DHT22;16066;0.000;0.000;2022-12-31T16:48:55;20.20;48.70
28959;DHT22;16066;0.000;0.000;2022-12-31T16:51:24;20.30;48.50
28959;DHT22;16066;0.000;0.000;2022-12-31T16:53:51;20.30;48.30
28959;DHT22;16066;0.000;0.000;2022-12-31T16:56:29;20.30;48.40
28959;DHT22;16066;0.000;0.000;2022-12-31T16:59:00;20.30;48.50
28959;DHT22;16066;0.000;0.000;2022-12-31T17:01:31;20.30;48.40
28959;DHT22;16066;0.000;0.000;2022-12-31T17:03:59;20.30;48.30
28959;DHT22;16066;0.000;0.000;2022-12-31T17:06:26;20.30;48.40
28959;DHT22;16066;0.000;0.000;2022-12-31T17:11:46;20.40;48.20
28959;DHT22;16066;0.000;0.000;2022-12-31T17:14:15;20.40;48.40
28959;DHT22;16066;0.000;0.000;2022-12-31T17:16:55;20.40;48.30
28959;DHT22;16066;0.000;0.000;2022-12-31T17:19:40;20.50;48.30
28959;DHT22;16066;0.000;0.000;2022-12-31T17:22:23;20.50;48.20
28959;DHT22;16066;0.000;0.000;2022-12-31T17:24:50;20.50;48.40
28959;DHT22;16066;0.000;0.000;2022-12-31T17:27:17;20.50;48.40
28959;DHT22;16066;0.000;0.000;2022-12-31T17:29:43;20.50;48.50
28959;DHT22;16066;0.000;0.000;2022-12-31T17:32:30;20.50;48.40
28959;DHT22;16066;0.000;0.000;2022-12-31T17:34:59;20.50;48.40
28959;DHT22;16066;0.000;0.000;2022-12-31T17:37:27;20.50;48.30
28959;DHT22;16066;0.000;0.000;2022-12-31T17:39:55;20.50;48.30
28959;DHT22;16066;0.000;0.000;2022-12-31T17:42:30;20.50;48.50
28959;DHT22;16066;0.000;0.000;2022-12-31T17:45:17;20.50;48.60
28959;DHT22;16066;0.000;0.000;2022-12-31T17:47:46;20.50;48.50
28959;DHT22;16066;0.000;0.000;2022-12-31T17:50:20;20.50;48.40
28959;DHT22;16066;0.000;0.000;2022-12-31T17:52:46;20.40;48.20
28959;DHT22;16066;0.000;0.000;2022-12-31T17:55:12;20.40;48.10
28959;DHT22;16066;0.000;0.000;2022-12-31T17:57:50;20.40;48.20
28959;DHT22;16066;0.000;0.000;2022-12-31T18:00:19;20.40;48.10
28959;DHT22;16066;0.000;0.000;2022-12-31T18:02:45;20.40;48.10
28959;DHT22;16066;0.000;0.000;2022-12-31T18:05:15;20.50;48.10
28959;DHT22;16066;0.000;0.000;2022-12-31T18:07:41;20.50;48.00
28959;DHT22;16066;0.000;0.000;2022-12-31T18:10:06;20.50;48.00
28959;DHT22;16066;0.000;0.000;2022-12-31T18:12:32;20.50;47.90
28959;DHT22;16066;0.000;0.000;2022-12-31T18:14:58;20.50;47.70
28959;DHT22;16066;0.000;0.000;2022-12-31T18:17:23;20.50;47.80
28959;DHT22;16066;0.000;0.000;2022-12-31T18:19:49;20.50;47.90
28959;DHT22;16066;0.000;0.000;2022-12-31T18:22:15;20.50;47.80
28959;DHT22;16066;0.000;0.000;2022-12-31T18:24:41;20.50;47.70
28959;DHT22;16066;0.000;0.000;2022-12-31T18:27:17;20.50;47.70
28959;DHT22;16066;0.000;0.000;2022-12-31T18:29:43;20.50;47.60
28959;DHT22;16066;0.000;0.000;2022-12-31T18:32:20;20.50;47.60
28959;DHT22;16066;0.000;0.000;2022-12-31T18:34:47;20.50;47.60
28959;DHT22;16066;0.000;0.000;2022-12-31T18:37:13;20.50;47.50
28959;DHT22;16066;0.000;0.000;2022-12-31T18:39:39;20.50;47.50
28959;DHT22;16066;0.000;0.000;2022-12-31T18:42:05;20.50;48.20
28959;DHT22;16066;0.000;0.000;2022-12-31T18:44:30;20.50;47.40
28959;DHT22;16066;0.000;0.000;2022-12-31T18:46:56;20.50;47.50
28959;DHT22;16066;0.000;0.000;2022-12-31T18:49:21;20.50;47.40
28959;DHT22;16066;0.000;0.000;2022-12-31T18:51:47;20.50;47.60
28959;DHT22;16066;0.000;0.000;2022-12-31T18:54:17;20.50;47.60
28959;DHT22;16066;0.000;0.000;2022-12-31T18:56:43;20.50;47.50
28959;DHT22;16066;0.000;0.000;2022-12-31T18:59:08;20.50;47.50
28959;DHT22;16066;0.000;0.000;2022-12-31T19:01:37;20.50;47.50
28959;DHT22;16066;0.000;0.000;2022-12-31T19:04:14;20.50;48.10
28959;DHT22;16066;0.000;0.000;2022-12-31T19:06:40;20.40;47.40
28959;DHT22;16066;0.000;0.000;2022-12-31T19:09:05;20.40;47.40
28959;DHT22;16066;0.000;0.000;2022-12-31T19:11:31;20.40;47.40
28959;DHT22;16066;0.000;0.000;2022-12-31T19:14:01;20.40;47.50
28959;DHT22;16066;0.000;0.000;2022-12-31T19:16:27;20.40;47.50
28959;DHT22;16066;0.000;0.000;2022-12-31T19:18:52;20.40;47.70
28959;DHT22;16066;0.000;0.000;2022-12-31T19:21:20;20.40;47.80
28959;DHT22;16066;0.000;0.000;2022-12-31T19:23:47;20.40;47.80
28959;DHT22;16066;0.000;0.000;2022-12-31T19:26:23;20.40;48.00
28959;DHT22;16066;0.000;0.000;2022-12-31T19:28:49;20.50;48.20
28959;DHT22;16066;0.000;0.000;2022-12-31T19:31:15;20.50;48.20
28959;DHT22;16066;0.000;0.000;2022-12-31T19:33:41;20.50;48.10
28959;DHT22;16066;0.000;0.000;2022-12-31T19:36:17;20.50;48.10
28959;DHT22;16066;0.000;0.000;2022-12-31T19:38:44;20.50;48.00
28959;DHT22;16066;0.000;0.000;2022-12-31T19:41:15;20.40;48.00
28959;DHT22;16066;0.000;0.000;2022-12-31T19:43:41;20.40;47.90
28959;DHT22;16066;0.000;0.000;2022-12-31T19:46:13;20.50;48.10
28959;DHT22;16066;0.000;0.000;2022-12-31T19:48:39;20.40;47.90
28959;DHT22;16066;0.000;0.000;2022-12-31T19:51:08;20.40;47.80
28959;DHT22;16066;0.000;0.000;2022-12-31T19:53:34;20.40;47.70
28959;DHT22;16066;0.000;0.000;2022-12-31T19:55:59;20.40;47.70